Time;durP1;ratioP1;P1;durP2;ratioP2;P2;SDS_P1;SDS_P2;PMS_P1;PMS_P2;Temp;Humidity;BMP_temperature;BMP_pressure;BME280_temperature;BME280_humidity;BME280_pressure;Samples;Min_cycle;Max_cycle;Signal;HPM_P1;HPM_P2
2023/05/07 00:01:38;;;;;;;36.30;25.42;;;;;;;;;;5082497;28;20042;-75
2023/05/07 00:04:04;;;;;;;34.00;24.92;;;;;;;;;;5101572;27;20036;-76
2023/05/07 00:06:32;;;;;;;35.20;25.52;;;;;;;;;;5063810;28;20037;-75
2023/05/07 00:08:59;;;;;;;33.47;25.10;;;;;;;;;;5086152;28;20056;-73
2023/05/07 00:11:25;;;;;;;30.35;24.98;;;;;;;;;;5086332;28;20047;-74
2023/05/07 00:13:51;;;;;;;34.88;26.13;;;;;;;;;;5086730;28;20127;-74
2023/05/07 00:16:17;;;;;;;29.85;24.55;;;;;;;;;;5083623;28;20122;-75
2023/05/07 00:18:44;;;;;;;37.50;26.73;;;;;;;;;;5073042;28;20076;-74
2023/05/07 00:21:10;;;;;;;34.13;26.33;;;;;;;;;;5085824;27;20117;-74
2023/05/07 00:23:36;;;;;;;35.75;26.08;;;;;;;;;;5083574;28;20079;-74
2023/05/07 00:26:01;;;;;;;34.80;27.27;;;;;;;;;;5075375;28;20043;-75
2023/05/07 00:28:27;;;;;;;37.60;27.52;;;;;;;;;;5071580;28;20048;-76
2023/05/07 00:30:53;;;;;;;37.50;28.20;;;;;;;;;;5076947;28;20054;-75
2023/05/07 00:33:20;;;;;;;39.45;28.40;;;;;;;;;;5075884;28;20538;-75
2023/05/07 00:35:46;;;;;;;37.85;27.60;;;;;;;;;;5074882;28;20068;-75
2023/05/07 00:38:12;;;;;;;37.35;28.80;;;;;;;;;;5071239;28;20048;-75
2023/05/07 00:40:38;;;;;;;38.17;27.77;;;;;;;;;;5071545;28;20036;-74
2023/05/07 00:43:04;;;;;;;40.30;28.83;;;;;;;;;;5073219;28;20072;-75
2023/05/07 00:45:30;;;;;;;36.85;28.27;;;;;;;;;;5066981;28;20107;-75
2023/05/07 00:47:58;;;;;;;38.67;28.55;;;;;;;;;;5063708;28;20514;-76
2023/05/07 00:50:24;;;;;;;39.05;29.35;;;;;;;;;;5082519;28;20032;-74
2023/05/07 00:52:50;;;;;;;43.67;30.25;;;;;;;;;;5071937;28;20040;-75
2023/05/07 00:55:16;;;;;;;42.72;29.92;;;;;;;;;;5074857;28;20044;-73
2023/05/07 00:57:42;;;;;;;42.47;29.98;;;;;;;;;;5083107;28;20047;-74
2023/05/07 01:00:09;;;;;;;43.10;31.13;;;;;;;;;;5083240;28;20078;-75
2023/05/07 01:02:36;;;;;;;43.15;31.38;;;;;;;;;;5089122;28;20043;-74
2023/05/07 01:05:05;;;;;;;38.55;30.10;;;;;;;;;;5107641;27;20045;-76
2023/05/07 01:07:32;;;;;;;42.60;30.77;;;;;;;;;;5075920;28;20133;-74
2023/05/07 01:09:58;;;;;;;39.28;29.80;;;;;;;;;;5076380;28;20057;-75
2023/05/07 01:12:25;;;;;;;42.10;29.45;;;;;;;;;;5085627;28;20039;-74
2023/05/07 01:14:51;;;;;;;38.08;29.33;;;;;;;;;;5086022;28;20059;-74
2023/05/07 01:17:17;;;;;;;39.97;28.40;;;;;;;;;;5065689;28;20043;-75
2023/05/07 01:19:44;;;;;;;38.97;29.05;;;;;;;;;;5101400;27;20087;-75
2023/05/07 01:22:11;;;;;;;41.83;28.25;;;;;;;;;;5086217;28;20116;-74
2023/05/07 01:24:37;;;;;;;39.92;29.38;;;;;;;;;;5075317;28;20047;-74
2023/05/07 01:27:03;;;;;;;36.33;30.48;;;;;;;;;;5087841;28;20028;-74
2023/05/07 01:29:29;;;;;;;39.25;30.35;;;;;;;;;;5075017;28;20047;-75
2023/05/07 01:31:57;;;;;;;40.85;32.42;;;;;;;;;;5098776;28;20582;-74
2023/05/07 01:34:25;;;;;;;39.60;31.17;;;;;;;;;;5086079;28;20040;-76
2023/05/07 01:36:52;;;;;;;39.20;32.15;;;;;;;;;;5069166;28;20052;-75
2023/05/07 01:39:18;;;;;;;45.72;33.33;;;;;;;;;;5081153;28;20028;-75
2023/05/07 01:41:45;;;;;;;49.42;34.63;;;;;;;;;;5075912;28;20080;-74
2023/05/07 01:44:13;;;;;;;46.85;33.97;;;;;;;;;;5086128;28;20445;-74
2023/05/07 01:46:39;;;;;;;46.95;35.17;;;;;;;;;;5079466;28;20048;-75
2023/05/07 01:49:05;;;;;;;46.10;34.35;;;;;;;;;;5076756;28;20511;-75
2023/05/07 01:51:31;;;;;;;44.55;35.22;;;;;;;;;;5082747;28;20041;-75
2023/05/07 01:53:57;;;;;;;45.92;34.72;;;;;;;;;;5085991;28;20420;-75
2023/05/07 01:56:24;;;;;;;47.00;34.78;;;;;;;;;;5094814;28;20070;-75
2023/05/07 01:58:51;;;;;;;48.03;35.95;;;;;;;;;;5076951;28;20048;-75
2023/05/07 02:01:17;;;;;;;49.53;37.03;;;;;;;;;;5087760;28;20056;-75
2023/05/07 02:03:43;;;;;;;57.03;37.78;;;;;;;;;;5070382;28;20392;-74
2023/05/07 02:06:09;;;;;;;52.25;36.92;;;;;;;;;;5085865;28;20087;-75
2023/05/07 02:08:35;;;;;;;52.88;38.83;;;;;;;;;;5083103;28;20126;-74
2023/05/07 02:11:01;;;;;;;49.30;37.63;;;;;;;;;;5089041;28;20426;-75
2023/05/07 02:13:30;;;;;;;51.50;37.42;;;;;;;;;;5068617;28;20527;-75
2023/05/07 02:15:57;;;;;;;53.25;38.15;;;;;;;;;;5074111;28;20479;-75
2023/05/07 02:18:23;;;;;;;54.65;38.30;;;;;;;;;;5069244;28;20131;-74
2023/05/07 02:20:49;;;;;;;54.47;37.95;;;;;;;;;;5096546;27;20131;-75
2023/05/07 02:23:16;;;;;;;56.88;40.33;;;;;;;;;;5068425;28;20407;-75
2023/05/07 02:25:42;;;;;;;56.78;40.65;;;;;;;;;;5080210;28;20051;-75
2023/05/07 02:28:08;;;;;;;57.38;39.45;;;;;;;;;;5072201;28;20048;-75
2023/05/07 02:30:34;;;;;;;56.95;40.17;;;;;;;;;;5077302;28;20536;-76
2023/05/07 02:33:00;;;;;;;58.97;39.88;;;;;;;;;;5076049;28;20086;-75
2023/05/07 02:35:26;;;;;;;60.67;40.60;;;;;;;;;;5085951;28;20028;-75
2023/05/07 02:37:52;;;;;;;58.33;39.70;;;;;;;;;;5084275;27;20079;-74
2023/05/07 02:40:18;;;;;;;61.95;40.97;;;;;;;;;;5067347;28;20072;-74
2023/05/07 02:42:44;;;;;;;62.95;40.17;;;;;;;;;;5096503;28;20480;-76
2023/05/07 02:45:10;;;;;;;66.07;42.40;;;;;;;;;;5113130;27;20149;-75
2023/05/07 02:47:36;;;;;;;66.93;42.38;;;;;;;;;;5079427;28;20041;-75
2023/05/07 02:50:03;;;;;;;61.63;42.60;;;;;;;;;;5077846;28;20075;-75
2023/05/07 02:52:29;;;;;;;59.85;41.30;;;;;;;;;;5071438;28;20492;-75
2023/05/07 02:54:55;;;;;;;65.68;43.20;;;;;;;;;;5070366;28;20093;-75
2023/05/07 02:57:21;;;;;;;67.97;43.50;;;;;;;;;;5078139;28;20040;-75
2023/05/07 02:59:47;;;;;;;68.78;43.88;;;;;;;;;;5090854;28;20038;-74
2023/05/07 03:02:13;;;;;;;67.45;44.33;;;;;;;;;;5052007;28;20507;-75
2023/05/07 03:04:40;;;;;;;69.63;45.13;;;;;;;;;;5078322;28;20040;-75
2023/05/07 03:07:06;;;;;;;65.88;42.58;;;;;;;;;;5095551;28;20050;-75
2023/05/07 03:09:32;;;;;;;65.95;43.72;;;;;;;;;;5087787;28;20146;-75
2023/05/07 03:11:58;;;;;;;70.13;45.70;;;;;;;;;;5079218;28;20044;-76
2023/05/07 03:14:24;;;;;;;73.38;44.88;;;;;;;;;;5105344;27;20036;-75
2023/05/07 03:16:50;;;;;;;68.93;44.35;;;;;;;;;;5077828;28;20089;-74
2023/05/07 03:19:16;;;;;;;65.97;43.88;;;;;;;;;;5095035;28;20071;-76
2023/05/07 03:21:42;;;;;;;60.03;41.35;;;;;;;;;;5085094;28;20058;-75
2023/05/07 03:24:08;;;;;;;58.63;40.10;;;;;;;;;;5091032;28;20510;-75
2023/05/07 03:26:34;;;;;;;60.40;40.58;;;;;;;;;;5073065;28;20052;-75
2023/05/07 03:29:00;;;;;;;59.78;41.42;;;;;;;;;;5092884;27;20450;-75
2023/05/07 03:31:26;;;;;;;56.78;40.45;;;;;;;;;;5062990;28;20040;-75
2023/05/07 03:33:56;;;;;;;60.47;41.95;;;;;;;;;;5080426;28;20074;-75
2023/05/07 03:36:22;;;;;;;63.20;42.38;;;;;;;;;;5075225;28;20068;-75
2023/05/07 03:38:49;;;;;;;60.00;41.30;;;;;;;;;;5079358;28;20117;-74
2023/05/07 03:41:15;;;;;;;66.15;44.90;;;;;;;;;;5084526;28;20051;-75
2023/05/07 03:43:41;;;;;;;60.25;40.22;;;;;;;;;;5074666;28;20135;-76
2023/05/07 03:46:07;;;;;;;60.00;41.17;;;;;;;;;;5059210;28;20469;-75
2023/05/07 03:48:33;;;;;;;53.65;39.35;;;;;;;;;;5073199;28;20047;-75
2023/05/07 03:50:59;;;;;;;58.13;41.63;;;;;;;;;;5077267;28;20453;-76
2023/05/07 03:53:25;;;;;;;56.17;41.03;;;;;;;;;;5076761;28;20070;-75
2023/05/07 03:55:51;;;;;;;58.10;42.20;;;;;;;;;;5081849;28;20369;-75
2023/05/07 03:58:17;;;;;;;57.20;40.90;;;;;;;;;;5081113;28;20055;-76
2023/05/07 04:00:43;;;;;;;56.00;40.13;;;;;;;;;;5065622;28;20056;-74
2023/05/07 04:03:09;;;;;;;62.33;41.40;;;;;;;;;;5068893;28;20052;-75
2023/05/07 04:05:35;;;;;;;60.85;41.00;;;;;;;;;;5069052;28;20028;-75
2023/05/07 04:08:02;;;;;;;60.97;41.70;;;;;;;;;;5096876;28;20044;-74
2023/05/07 04:10:29;;;;;;;62.65;43.85;;;;;;;;;;5097396;27;20052;-76
2023/05/07 04:12:56;;;;;;;59.38;41.35;;;;;;;;;;5101173;27;20076;-75
2023/05/07 04:15:22;;;;;;;62.88;41.38;;;;;;;;;;5072888;28;20036;-74
2023/05/07 04:17:48;;;;;;;59.97;41.67;;;;;;;;;;5095595;27;20090;-75
2023/05/07 04:20:16;;;;;;;58.88;42.50;;;;;;;;;;5101939;27;20048;-75
2023/05/07 04:22:42;;;;;;;56.05;40.22;;;;;;;;;;5081199;28;20056;-75
2023/05/07 04:25:09;;;;;;;58.15;40.25;;;;;;;;;;5075551;28;20055;-75
2023/05/07 04:27:35;;;;;;;55.38;39.00;;;;;;;;;;5082671;28;20036;-74
2023/05/07 04:30:02;;;;;;;60.88;40.72;;;;;;;;;;5072003;28;20051;-75
2023/05/07 04:32:29;;;;;;;55.22;38.53;;;;;;;;;;5078403;28;20048;-74
2023/05/07 04:34:55;;;;;;;58.40;40.05;;;;;;;;;;5077617;28;20726;-75
2023/05/07 04:37:21;;;;;;;53.00;38.67;;;;;;;;;;5081140;28;20123;-74
2023/05/07 04:39:47;;;;;;;51.42;37.00;;;;;;;;;;5086112;27;20500;-75
2023/05/07 04:42:17;;;;;;;53.58;39.78;;;;;;;;;;5084388;28;20036;-75
2023/05/07 04:44:44;;;;;;;58.42;40.45;;;;;;;;;;5076679;28;20090;-75
2023/05/07 04:47:10;;;;;;;52.65;38.38;;;;;;;;;;5081504;28;20044;-74
2023/05/07 04:49:36;;;;;;;50.72;37.55;;;;;;;;;;5080793;28;20406;-75
2023/05/07 04:52:03;;;;;;;47.83;35.33;;;;;;;;;;5078513;28;20040;-75
2023/05/07 04:54:29;;;;;;;50.97;37.40;;;;;;;;;;5101471;27;20797;-75
2023/05/07 04:56:55;;;;;;;46.13;34.95;;;;;;;;;;5106230;27;20036;-75
2023/05/07 04:59:21;;;;;;;51.60;37.65;;;;;;;;;;5076072;28;20050;-75
2023/05/07 05:01:47;;;;;;;47.80;36.05;;;;;;;;;;5057430;28;20391;-75
2023/05/07 05:04:13;;;;;;;50.00;35.22;;;;;;;;;;5063226;28;20040;-75
2023/05/07 05:06:39;;;;;;;45.83;34.10;;;;;;;;;;5078823;28;20039;-76
2023/05/07 05:09:05;;;;;;;45.05;35.20;;;;;;;;;;5100567;28;20092;-74
2023/05/07 05:11:32;;;;;;;45.42;34.63;;;;;;;;;;5070554;28;20066;-75
2023/05/07 05:14:00;;;;;;;45.35;32.67;;;;;;;;;;5100002;27;20048;-76
2023/05/07 05:16:26;;;;;;;41.40;32.50;;;;;;;;;;5081876;28;20131;-75
2023/05/07 05:18:53;;;;;;;43.55;34.25;;;;;;;;;;5071713;28;20028;-75
2023/05/07 05:21:19;;;;;;;43.63;32.45;;;;;;;;;;5071062;28;20051;-75
2023/05/07 05:23:45;;;;;;;41.17;32.15;;;;;;;;;;5068134;28;20036;-75
2023/05/07 05:26:12;;;;;;;41.58;32.80;;;;;;;;;;5082987;28;20066;-76
2023/05/07 05:28:37;;;;;;;43.92;33.88;;;;;;;;;;5091817;28;20440;-75
2023/05/07 05:31:04;;;;;;;45.30;33.38;;;;;;;;;;5078246;28;20043;-75
2023/05/07 05:33:30;;;;;;;38.08;32.33;;;;;;;;;;5106812;28;20054;-75
2023/05/07 05:35:56;;;;;;;43.22;34.20;;;;;;;;;;5073088;28;20031;-75
2023/05/07 05:38:22;;;;;;;37.83;31.50;;;;;;;;;;5069532;28;20453;-75
2023/05/07 05:40:48;;;;;;;43.72;32.20;;;;;;;;;;5099139;28;20085;-75
2023/05/07 05:43:14;;;;;;;39.35;30.92;;;;;;;;;;5075429;28;20048;-75
2023/05/07 05:45:40;;;;;;;42.00;32.25;;;;;;;;;;5082489;28;20174;-75
2023/05/07 05:48:08;;;;;;;37.22;30.85;;;;;;;;;;5080942;28;20078;-75
2023/05/07 05:50:35;;;;;;;36.17;30.02;;;;;;;;;;5069190;28;20044;-75
2023/05/07 05:53:01;;;;;;;34.38;29.58;;;;;;;;;;5079263;28;21897;-74
2023/05/07 05:55:27;;;;;;;35.20;29.27;;;;;;;;;;5088267;28;20070;-75
2023/05/07 05:57:53;;;;;;;36.72;30.20;;;;;;;;;;5067689;28;20056;-75
2023/05/07 06:00:22;;;;;;;39.03;31.10;;;;;;;;;;5065392;28;20171;-74
2023/05/07 06:02:48;;;;;;;36.28;29.77;;;;;;;;;;5080719;28;20104;-76
2023/05/07 06:05:14;;;;;;;38.05;30.27;;;;;;;;;;5069825;28;20044;-75
2023/05/07 06:07:40;;;;;;;34.85;29.55;;;;;;;;;;5068118;28;20052;-74
2023/05/07 06:10:07;;;;;;;36.40;29.27;;;;;;;;;;5063718;28;20104;-75
2023/05/07 06:12:33;;;;;;;37.13;29.52;;;;;;;;;;5065745;28;20078;-75
2023/05/07 06:14:59;;;;;;;38.90;30.52;;;;;;;;;;5085551;28;20102;-76
2023/05/07 06:17:25;;;;;;;34.83;28.00;;;;;;;;;;5069530;28;20567;-75
2023/05/07 06:19:51;;;;;;;37.60;30.15;;;;;;;;;;5069644;28;20044;-75
2023/05/07 06:22:17;;;;;;;37.67;30.17;;;;;;;;;;5103540;27;20028;-75
2023/05/07 06:24:43;;;;;;;33.45;28.77;;;;;;;;;;5065196;28;20131;-75
2023/05/07 06:27:09;;;;;;;36.35;29.75;;;;;;;;;;5075352;28;20039;-75
2023/05/07 06:29:35;;;;;;;36.05;29.63;;;;;;;;;;5079477;28;20071;-75
2023/05/07 06:32:11;;;;;;;32.83;28.83;;;;;;;;;;5076277;28;20432;-75
2023/05/07 06:34:37;;;;;;;37.80;30.13;;;;;;;;;;5077125;28;20496;-75
2023/05/07 06:37:03;;;;;;;36.60;29.15;;;;;;;;;;5067250;28;20036;-75
2023/05/07 06:39:29;;;;;;;35.72;29.13;;;;;;;;;;5069268;28;20044;-74
2023/05/07 06:41:55;;;;;;;39.45;29.50;;;;;;;;;;5073697;28;20041;-75
2023/05/07 06:44:21;;;;;;;35.45;28.52;;;;;;;;;;5068557;28;20047;-75
2023/05/07 06:46:47;;;;;;;39.88;29.60;;;;;;;;;;5079226;28;20104;-75
2023/05/07 06:49:14;;;;;;;33.55;28.42;;;;;;;;;;5077347;28;20171;-75
2023/05/07 06:51:40;;;;;;;37.65;30.38;;;;;;;;;;5079036;28;20050;-75
2023/05/07 06:54:06;;;;;;;39.25;30.80;;;;;;;;;;5089101;28;20035;-75
2023/05/07 06:56:32;;;;;;;36.92;29.58;;;;;;;;;;5108620;27;20053;-75
2023/05/07 06:58:58;;;;;;;38.25;30.20;;;;;;;;;;5078004;28;20129;-75
2023/05/07 07:01:24;;;;;;;35.80;29.05;;;;;;;;;;5095959;27;20103;-75
2023/05/07 07:03:51;;;;;;;38.72;29.95;;;;;;;;;;5073516;28;20056;-75
2023/05/07 07:06:17;;;;;;;39.85;31.23;;;;;;;;;;5102873;27;20052;-75
2023/05/07 07:08:43;;;;;;;36.03;28.98;;;;;;;;;;5074829;28;20769;-75
2023/05/07 07:11:09;;;;;;;37.33;30.42;;;;;;;;;;5068517;28;20048;-74
2023/05/07 07:13:35;;;;;;;38.88;30.83;;;;;;;;;;5101740;27;21260;-74
2023/05/07 07:16:01;;;;;;;38.53;29.90;;;;;;;;;;5087782;28;20114;-75
2023/05/07 07:18:27;;;;;;;35.83;29.20;;;;;;;;;;5072668;28;20142;-74
2023/05/07 07:20:53;;;;;;;37.83;30.00;;;;;;;;;;5102504;27;20048;-74
2023/05/07 07:23:19;;;;;;;35.85;30.15;;;;;;;;;;5092182;27;20501;-75
2023/05/07 07:25:45;;;;;;;38.22;29.80;;;;;;;;;;5107194;27;20044;-74
2023/05/07 07:28:11;;;;;;;39.10;30.67;;;;;;;;;;5071499;28;20048;-76
2023/05/07 07:30:38;;;;;;;37.65;30.85;;;;;;;;;;5089533;28;20044;-77
2023/05/07 07:33:07;;;;;;;37.90;30.45;;;;;;;;;;5072058;28;20072;-75
2023/05/07 07:35:33;;;;;;;36.05;30.05;;;;;;;;;;5072329;28;20074;-75
2023/05/07 07:37:59;;;;;;;36.15;30.00;;;;;;;;;;5076122;28;20126;-75
2023/05/07 07:40:25;;;;;;;36.10;29.30;;;;;;;;;;5070896;28;20051;-75
2023/05/07 07:42:52;;;;;;;39.42;31.05;;;;;;;;;;5074909;28;20044;-75
2023/05/07 07:45:18;;;;;;;37.63;30.05;;;;;;;;;;5073323;28;20077;-75
2023/05/07 07:47:44;;;;;;;36.63;30.42;;;;;;;;;;5067416;28;20827;-75
2023/05/07 07:50:10;;;;;;;40.63;32.63;;;;;;;;;;5073836;28;20476;-74
2023/05/07 07:52:36;;;;;;;39.00;30.63;;;;;;;;;;5074914;28;20575;-75
2023/05/07 07:55:03;;;;;;;40.50;30.63;;;;;;;;;;5070225;28;20077;-75
2023/05/07 07:57:29;;;;;;;39.53;31.08;;;;;;;;;;5087985;28;20046;-76
2023/05/07 07:59:55;;;;;;;37.55;31.13;;;;;;;;;;5076776;28;20085;-74
2023/05/07 08:02:21;;;;;;;39.35;31.90;;;;;;;;;;5067897;28;20127;-75
2023/05/07 08:04:47;;;;;;;40.58;31.83;;;;;;;;;;5077006;28;20047;-74
2023/05/07 08:07:14;;;;;;;37.72;31.35;;;;;;;;;;5070571;28;20070;-74
2023/05/07 08:09:40;;;;;;;37.63;29.77;;;;;;;;;;5076335;28;20051;-75
2023/05/07 08:12:07;;;;;;;36.53;29.52;;;;;;;;;;5073445;28;20051;-74
2023/05/07 08:14:33;;;;;;;37.53;29.88;;;;;;;;;;5075314;28;20052;-74
2023/05/07 08:16:59;;;;;;;37.75;29.75;;;;;;;;;;5075521;28;20044;-74
2023/05/07 08:19:25;;;;;;;36.22;29.80;;;;;;;;;;5075176;28;20044;-75
2023/05/07 08:21:51;;;;;;;35.97;28.65;;;;;;;;;;5071260;28;20048;-75
2023/05/07 08:24:17;;;;;;;36.75;28.27;;;;;;;;;;5072950;28;20063;-75
2023/05/07 08:26:44;;;;;;;38.42;28.23;;;;;;;;;;5088221;28;20032;-75
2023/05/07 08:29:10;;;;;;;33.35;27.40;;;;;;;;;;5081423;28;20119;-75
2023/05/07 08:31:36;;;;;;;35.58;27.95;;;;;;;;;;5109954;27;20555;-75
2023/05/07 08:34:03;;;;;;;31.75;27.13;;;;;;;;;;5048682;28;20082;-74
2023/05/07 08:36:33;;;;;;;33.80;27.20;;;;;;;;;;5071348;28;20055;-75
2023/05/07 08:38:59;;;;;;;31.42;26.60;;;;;;;;;;5070355;28;20041;-75
2023/05/07 08:41:28;;;;;;;34.45;27.42;;;;;;;;;;5078377;28;20058;-76
2023/05/07 08:43:57;;;;;;;32.33;27.15;;;;;;;;;;5071621;28;20080;-76
2023/05/07 08:46:25;;;;;;;32.75;25.88;;;;;;;;;;5085183;28;20177;-77
2023/05/07 08:48:51;;;;;;;29.80;25.10;;;;;;;;;;5072375;28;20044;-75
2023/05/07 08:51:21;;;;;;;30.83;25.17;;;;;;;;;;5070122;28;20361;-76
2023/05/07 08:53:48;;;;;;;33.40;25.65;;;;;;;;;;5082685;28;20067;-75
2023/05/07 08:56:15;;;;;;;32.05;25.25;;;;;;;;;;5069307;28;20052;-75
2023/05/07 08:58:45;;;;;;;33.42;27.23;;;;;;;;;;5083074;28;20040;-75
2023/05/07 09:01:13;;;;;;;31.42;25.38;;;;;;;;;;5081253;28;20407;-75
2023/05/07 09:03:40;;;;;;;30.15;25.02;;;;;;;;;;5068493;28;20117;-76
2023/05/07 09:06:06;;;;;;;31.60;26.17;;;;;;;;;;5066169;28;20159;-76
2023/05/07 09:08:35;;;;;;;30.73;24.85;;;;;;;;;;5065365;28;20067;-75
2023/05/07 09:11:01;;;;;;;27.52;23.73;;;;;;;;;;5074859;28;20511;-75
2023/05/07 09:13:28;;;;;;;28.45;23.42;;;;;;;;;;5068749;28;20119;-75
2023/05/07 09:15:54;;;;;;;29.88;24.08;;;;;;;;;;5069833;28;20048;-76
2023/05/07 09:18:20;;;;;;;33.35;25.83;;;;;;;;;;5069064;28;20045;-75
2023/05/07 09:20:46;;;;;;;30.25;24.40;;;;;;;;;;5068863;28;20601;-76
2023/05/07 09:23:12;;;;;;;30.67;25.00;;;;;;;;;;5073284;28;20122;-75
2023/05/07 09:25:38;;;;;;;29.20;24.75;;;;;;;;;;5054058;28;20040;-76
2023/05/07 09:28:07;;;;;;;29.60;24.95;;;;;;;;;;5084484;28;20048;-76
2023/05/07 09:30:33;;;;;;;27.48;23.15;;;;;;;;;;5065134;28;20047;-75
2023/05/07 09:33:00;;;;;;;30.45;24.02;;;;;;;;;;5070294;28;20072;-77
2023/05/07 09:35:29;;;;;;;28.65;24.25;;;;;;;;;;5070045;28;20044;-76
2023/05/07 09:37:56;;;;;;;28.60;24.08;;;;;;;;;;5057206;28;20047;-75
2023/05/07 09:40:23;;;;;;;31.73;23.83;;;;;;;;;;5065611;28;20403;-76
2023/05/07 09:42:49;;;;;;;28.70;23.23;;;;;;;;;;5057219;28;20040;-75
2023/05/07 09:45:16;;;;;;;29.10;23.40;;;;;;;;;;5070306;28;20140;-76
2023/05/07 09:47:47;;;;;;;28.77;23.85;;;;;;;;;;5072452;28;20129;-77
2023/05/07 09:50:14;;;;;;;29.60;23.20;;;;;;;;;;5074216;28;20047;-76
2023/05/07 09:52:41;;;;;;;30.60;22.92;;;;;;;;;;5075185;28;20084;-76
2023/05/07 09:55:08;;;;;;;26.90;22.35;;;;;;;;;;5077326;28;20181;-75
2023/05/07 09:57:35;;;;;;;27.02;22.48;;;;;;;;;;5078072;28;20044;-75
2023/05/07 10:00:05;;;;;;;25.80;22.52;;;;;;;;;;5109116;27;20048;-75
2023/05/07 10:02:32;;;;;;;27.63;22.25;;;;;;;;;;5075880;28;20617;-75
2023/05/07 10:05:00;;;;;;;26.80;22.73;;;;;;;;;;5075969;28;20036;-75
2023/05/07 10:07:26;;;;;;;25.42;22.70;;;;;;;;;;5072465;28;20505;-76
2023/05/07 10:09:53;;;;;;;28.95;21.88;;;;;;;;;;5075418;28;20051;-76
2023/05/07 10:12:20;;;;;;;25.00;22.08;;;;;;;;;;5073892;28;20842;-75
2023/05/07 10:14:48;;;;;;;25.98;21.88;;;;;;;;;;5080226;28;20040;-76
2023/05/07 10:17:14;;;;;;;24.57;21.93;;;;;;;;;;5072697;28;20138;-76
2023/05/07 10:19:40;;;;;;;25.15;21.83;;;;;;;;;;5078023;28;20051;-76
2023/05/07 10:22:06;;;;;;;23.67;20.50;;;;;;;;;;5091195;28;20149;-75
2023/05/07 10:24:39;;;;;;;23.65;20.75;;;;;;;;;;5081707;28;20039;-75
2023/05/07 10:27:08;;;;;;;23.42;20.58;;;;;;;;;;5077163;28;20044;-75
2023/05/07 10:29:42;;;;;;;23.55;20.52;;;;;;;;;;5076828;28;20040;-75
2023/05/07 10:32:26;;;;;;;25.17;20.70;;;;;;;;;;5070768;28;20135;-75
2023/05/07 10:34:55;;;;;;;23.30;20.02;;;;;;;;;;5089787;27;20518;-75
2023/05/07 10:37:21;;;;;;;;;;;;;;;;;;5073413;28;20127;-75
2023/05/07 10:39:47;;;;;;;23.23;20.48;;;;;;;;;;5088055;28;20039;-73
2023/05/07 10:42:13;;;;;;;26.05;19.60;;;;;;;;;;5071712;28;20508;-74
2023/05/07 10:44:40;;;;;;;21.77;19.25;;;;;;;;;;5070227;28;20048;-75
2023/05/07 10:47:13;;;;;;;23.13;20.63;;;;;;;;;;5090603;28;20060;-76
2023/05/07 10:49:42;;;;;;;23.48;19.63;;;;;;;;;;5077919;28;20511;-76
2023/05/07 10:52:13;;;;;;;23.08;19.92;;;;;;;;;;5082147;28;20056;-76
2023/05/07 10:54:39;;;;;;;22.15;19.77;;;;;;;;;;5062715;28;20095;-76
2023/05/07 10:57:24;;;;;;;25.20;19.70;;;;;;;;;;5075429;28;20051;-75
2023/05/07 10:59:51;;;;;;;24.05;19.30;;;;;;;;;;5074039;28;20036;-76
2023/05/07 11:02:17;;;;;;;20.80;18.60;;;;;;;;;;5054134;28;20038;-75
2023/05/07 11:04:44;;;;;;;24.15;19.23;;;;;;;;;;5068842;28;20412;-75
2023/05/07 11:07:21;;;;;;;21.15;18.52;;;;;;;;;;5082278;28;20048;-75
2023/05/07 11:09:54;;;;;;;21.60;19.30;;;;;;;;;;5089870;28;20040;-75
2023/05/07 11:12:39;;;;;;;21.88;19.23;;;;;;;;;;5086832;28;20044;-75
2023/05/07 11:15:33;;;;;;;21.75;19.45;;;;;;;;;;5087313;28;20052;-75
2023/05/07 11:18:00;;;;;;;22.85;19.42;;;;;;;;;;5075305;28;20463;-75
2023/05/07 11:20:44;;;;;;;21.15;18.85;;;;;;;;;;5083588;28;20067;-75
2023/05/07 11:23:31;;;;;;;21.20;19.08;;;;;;;;;;5094482;28;20109;-76
2023/05/07 11:26:01;;;;;;;20.58;18.48;;;;;;;;;;5103912;27;20074;-75
2023/05/07 11:28:30;;;;;;;22.80;19.65;;;;;;;;;;5069082;28;20041;-76
2023/05/07 11:30:57;;;;;;;23.17;19.65;;;;;;;;;;5087301;28;20037;-75
2023/05/07 11:33:25;;;;;;;22.02;19.10;;;;;;;;;;5075833;28;20640;-76
2023/05/07 11:35:51;;;;;;;21.35;19.20;;;;;;;;;;5088607;28;20187;-75
2023/05/07 11:38:18;;;;;;;21.80;19.10;;;;;;;;;;5068337;28;20048;-75
2023/05/07 11:40:51;;;;;;;22.48;20.17;;;;;;;;;;5089427;28;20062;-76
2023/05/07 11:43:17;;;;;;;20.25;18.05;;;;;;;;;;5095172;28;20100;-75
2023/05/07 11:45:43;;;;;;;20.70;18.50;;;;;;;;;;5075063;28;20499;-75
2023/05/07 11:48:09;;;;;;;21.30;19.10;;;;;;;;;;5067244;28;20056;-75
2023/05/07 11:50:35;;;;;;;21.50;19.25;;;;;;;;;;5075254;28;20036;-76
2023/05/07 11:53:07;;;;;;;20.17;18.08;;;;;;;;;;5072563;28;20838;-75
2023/05/07 11:55:33;;;;;;;20.85;17.27;;;;;;;;;;5076936;28;20528;-75
2023/05/07 11:57:59;;;;;;;22.67;18.08;;;;;;;;;;5080560;28;20511;-75
2023/05/07 12:00:25;;;;;;;20.45;18.20;;;;;;;;;;5076485;28;20055;-75
2023/05/07 12:02:51;;;;;;;21.48;18.63;;;;;;;;;;5074089;28;20412;-75
2023/05/07 12:05:17;;;;;;;20.30;18.15;;;;;;;;;;5071321;28;20151;-75
2023/05/07 12:07:43;;;;;;;21.02;18.83;;;;;;;;;;5074082;28;20079;-75
2023/05/07 12:10:12;;;;;;;19.80;17.48;;;;;;;;;;5067548;28;20050;-75
2023/05/07 12:12:44;;;;;;;20.40;18.40;;;;;;;;;;5064899;28;20452;-74
2023/05/07 12:15:10;;;;;;;21.02;18.83;;;;;;;;;;5091817;28;20104;-73
2023/05/07 12:17:36;;;;;;;19.77;17.77;;;;;;;;;;5078540;28;20488;-75
2023/05/07 12:20:03;;;;;;;22.23;18.92;;;;;;;;;;5074018;28;20044;-76
2023/05/07 12:22:32;;;;;;;19.35;17.27;;;;;;;;;;5078806;28;20043;-74
2023/05/07 12:24:58;;;;;;;21.00;18.52;;;;;;;;;;5077661;28;20036;-75
2023/05/07 12:27:25;;;;;;;19.80;17.90;;;;;;;;;;5069525;28;20040;-74
2023/05/07 12:29:51;;;;;;;21.58;19.27;;;;;;;;;;5072655;28;20064;-74
2023/05/07 12:32:18;;;;;;;20.77;18.67;;;;;;;;;;5077907;28;20040;-74
2023/05/07 12:34:44;;;;;;;20.23;18.15;;;;;;;;;;5074148;28;20492;-75
2023/05/07 12:37:11;;;;;;;21.00;18.85;;;;;;;;;;5073959;28;20415;-75
2023/05/07 12:39:37;;;;;;;20.35;18.08;;;;;;;;;;5070934;28;20106;-74
2023/05/07 12:42:03;;;;;;;19.38;17.48;;;;;;;;;;5109932;27;20045;-74
2023/05/07 12:44:33;;;;;;;20.40;18.33;;;;;;;;;;5076416;28;20062;-75
2023/05/07 12:47:01;;;;;;;17.98;16.17;;;;;;;;;;5044815;28;20056;-74
2023/05/07 12:49:27;;;;;;;18.63;16.63;;;;;;;;;;5073170;28;20100;-74
2023/05/07 12:51:55;;;;;;;20.80;17.90;;;;;;;;;;5067308;28;20059;-74
2023/05/07 12:54:31;;;;;;;19.45;17.45;;;;;;;;;;5106895;27;20040;-75
2023/05/07 12:57:05;;;;;;;19.30;17.35;;;;;;;;;;5078426;28;20090;-75
2023/05/07 12:59:32;;;;;;;20.20;18.20;;;;;;;;;;5072283;28;20051;-74
2023/05/07 13:01:57;;;;;;;20.35;18.20;;;;;;;;;;5091426;27;20032;-74
2023/05/07 13:04:25;;;;;;;19.48;17.48;;;;;;;;;;5076033;28;20790;-76
2023/05/07 13:06:50;;;;;;;19.42;17.33;;;;;;;;;;5074800;28;20051;-74
2023/05/07 13:09:16;;;;;;;18.67;16.77;;;;;;;;;;5077064;28;20052;-75
2023/05/07 13:11:42;;;;;;;20.13;16.95;;;;;;;;;;5073682;28;20051;-75
2023/05/07 13:14:08;;;;;;;20.30;18.20;;;;;;;;;;5072666;28;20062;-74
2023/05/07 13:16:34;;;;;;;18.52;16.30;;;;;;;;;;5074282;28;20122;-75
2023/05/07 13:19:00;;;;;;;18.90;17.00;;;;;;;;;;5071018;28;20040;-74
2023/05/07 13:21:26;;;;;;;18.77;16.98;;;;;;;;;;5070547;28;20052;-75
2023/05/07 13:23:52;;;;;;;17.35;15.65;;;;;;;;;;5076141;28;20036;-75
2023/05/07 13:26:18;;;;;;;19.05;16.10;;;;;;;;;;5081987;28;20043;-74
2023/05/07 13:28:44;;;;;;;17.83;16.02;;;;;;;;;;5072688;28;20160;-74
2023/05/07 13:31:10;;;;;;;17.98;16.17;;;;;;;;;;5075317;28;20436;-75
2023/05/07 13:33:36;;;;;;;17.17;15.48;;;;;;;;;;5108556;28;20090;-74
2023/05/07 13:36:05;;;;;;;18.25;14.98;;;;;;;;;;5085949;28;20047;-75
2023/05/07 13:38:31;;;;;;;16.83;15.13;;;;;;;;;;5079546;28;20130;-75
2023/05/07 13:40:57;;;;;;;17.63;16.02;;;;;;;;;;5082587;28;20495;-74
2023/05/07 13:43:23;;;;;;;17.58;15.75;;;;;;;;;;5077996;28;20058;-75
2023/05/07 13:45:49;;;;;;;18.02;16.33;;;;;;;;;;5075962;28;20059;-75
2023/05/07 13:48:15;;;;;;;18.48;16.65;;;;;;;;;;5093946;28;20083;-74
2023/05/07 13:50:41;;;;;;;18.42;16.67;;;;;;;;;;5073068;28;20134;-75
2023/05/07 13:53:08;;;;;;;18.45;16.52;;;;;;;;;;5073123;28;20044;-75
2023/05/07 13:55:34;;;;;;;17.60;15.55;;;;;;;;;;5077033;28;20293;-75
2023/05/07 13:58:01;;;;;;;17.73;16.13;;;;;;;;;;5073088;28;20535;-75
2023/05/07 14:00:27;;;;;;;16.08;14.57;;;;;;;;;;5070860;28;20177;-75
2023/05/07 14:02:54;;;;;;;15.45;13.95;;;;;;;;;;5091026;28;20067;-75
2023/05/07 14:05:22;;;;;;;17.75;15.95;;;;;;;;;;5076844;28;20036;-76
2023/05/07 14:07:51;;;;;;;17.58;15.85;;;;;;;;;;5068122;28;20856;-75
2023/05/07 14:10:17;;;;;;;;;;;;;;;;;;5075520;28;20040;-76
2023/05/07 14:12:44;;;;;;;16.35;14.75;;;;;;;;;;5071974;28;19920;-76
2023/05/07 14:15:10;;;;;;;18.27;14.82;;;;;;;;;;5073450;28;20036;-76
2023/05/07 14:17:36;;;;;;;16.70;15.10;;;;;;;;;;5071155;28;20083;-76